aviador You're here:

KNCA Decoded Metar

JACKSONVILLE in NC, USA
Report Time2018-02-18 16:56:00
UTC Time2018-02-18 17:51:11
Flight Rules vfr VFR
Wind040° at 09 kt
W.Decomp.*RWY 05: 9.0 kt HW 0.3 kt LCW
RWY 01: 7.1 kt HW 5.5 kt RCW
W.Rank040° ranks 17
Current wind is above 040° avg. (8.0)
Visibility9999 m
Phenomena:N/A
Clouds:Overcast 045 Hf
Expected CloudBase > 4,000 ft AGL from Temp-Dew spread
Ceiling4,500 ft
Temp16°C (ISA +1)
Dew Point06°C (52% RH)
AAT11.9°C
QNH1027 hPa
Density Alt-194 ft
Elevation26 ft
Report Wrong Elevation
Raw Report
KNCA 181656Z AUTO 04009KT 10SM OVC045 16/06 A3034 RMK AO2 SLP277
T01610061=

Extra information for KNCA:More info

Metar Taf Metar & Taf Last 4 Metars F.Rules Stats Wind Profile Meteogram Temp Stats Airport Information Weather charts Add Link Nearby VenuesMetar ALERT Operation Metar Decoded Social comments

AIRNAV info for KNCA